createdAt,value
2023-02-03T00:01:36.550Z,100611.19
2023-02-03T00:06:38.355Z,100619.00
2023-02-03T00:11:40.105Z,100607.00
2023-02-03T00:16:41.912Z,100612.22
2023-02-03T00:21:43.654Z,100611.38
2023-02-03T00:26:45.401Z,100607.94
2023-02-03T00:31:47.157Z,100604.41
2023-02-03T00:36:49.302Z,100598.31
2023-02-03T00:41:51.006Z,100585.22
2023-02-03T00:46:52.711Z,100573.09
2023-02-03T00:51:54.420Z,100564.34
2023-02-03T00:56:56.132Z,100553.00
2023-02-03T01:01:58.129Z,100540.00
2023-02-03T01:07:00.037Z,100539.13
2023-02-03T01:12:01.842Z,100529.59
2023-02-03T01:17:03.579Z,100511.44
2023-02-03T01:22:05.368Z,100497.47
2023-02-03T01:27:07.268Z,100487.09
2023-02-03T01:32:08.995Z,100476.59
2023-02-03T01:37:10.711Z,100462.78
2023-02-03T01:42:16.048Z,100444.56
2023-02-03T01:47:17.688Z,100453.31
2023-02-03T01:52:19.957Z,100440.19
2023-02-03T01:57:35.051Z,100434.31
2023-02-03T02:02:37.289Z,100419.53
2023-02-03T02:07:41.163Z,100405.69
2023-02-03T02:12:44.476Z,100385.84
2023-02-03T02:18:02.093Z,100371.19
2023-02-03T02:23:36.636Z,100376.44
2023-02-03T02:28:50.845Z,100355.47
2023-02-03T02:34:32.048Z,100349.34
2023-02-03T02:39:45.982Z,100338.97
2023-02-03T02:45:15.151Z,100333.91
2023-02-03T02:50:23.227Z,100323.50
2023-02-03T02:55:30.683Z,100309.78
2023-02-03T03:00:36.943Z,100284.78
2023-02-03T03:05:41.738Z,100265.06
2023-02-03T03:10:45.320Z,100251.34
2023-02-03T03:15:49.092Z,100240.97
2023-02-03T03:20:53.410Z,100234.06
2023-02-03T03:26:05.059Z,100227.13
2023-02-03T03:31:06.814Z,100221.88
2023-02-03T03:36:24.053Z,100222.75
2023-02-03T03:41:34.873Z,100217.53
2023-02-03T03:46:49.735Z,100222.69
2023-02-03T03:52:06.491Z,100214.00
2023-02-03T03:57:23.667Z,100219.22
2023-02-03T04:02:25.648Z,100195.66
2023-02-03T04:07:45.532Z,100163.47
2023-02-03T04:12:47.519Z,100140.84
2023-02-03T04:17:49.340Z,100127.69
2023-02-03T04:22:51.162Z,100126.81
2023-02-03T04:27:52.999Z,100126.84
2023-02-03T04:32:54.842Z,100118.91
2023-02-03T04:37:56.610Z,100130.22
2023-02-03T04:42:58.404Z,100132.69
2023-02-03T04:48:00.187Z,100125.69
2023-02-03T04:53:01.931Z,100121.28
2023-02-03T04:58:03.753Z,100125.69
2023-02-03T05:03:05.600Z,100124.88
2023-02-03T05:08:07.383Z,100118.69
2023-02-03T05:13:09.223Z,100114.41
2023-02-03T05:18:10.940Z,100106.53
2023-02-03T05:23:12.687Z,100100.47
2023-02-03T05:28:14.855Z,100079.47
2023-02-03T05:33:16.846Z,100076.88
2023-02-03T05:38:18.903Z,100050.91
2023-02-03T05:43:20.611Z,100071.50
2023-02-03T05:48:22.299Z,100062.91
2023-02-03T05:53:24.571Z,100065.41
2023-02-03T05:58:26.347Z,100085.44
2023-02-03T06:03:28.103Z,100080.88
2023-02-03T06:08:29.926Z,100073.84
2023-02-03T06:13:31.808Z,100079.16
2023-02-03T06:18:33.531Z,100072.09
2023-02-03T06:23:35.333Z,100068.59
2023-02-03T06:28:38.289Z,100032.84
2023-02-03T06:33:40.075Z,100048.47
2023-02-03T06:38:41.828Z,100042.47
2023-02-03T06:43:43.720Z,100033.78
2023-02-03T06:48:45.421Z,100027.69
2023-02-03T06:53:47.115Z,100017.28
2023-02-03T06:58:48.817Z,100012.94
2023-02-03T07:03:50.513Z,99986.97
2023-02-03T07:08:52.193Z,99982.78
2023-02-03T07:13:54.219Z,99974.81
2023-02-03T07:18:56.006Z,99965.22
2023-02-03T07:23:57.697Z,99951.16
2023-02-03T07:29:00.854Z,99960.59
2023-02-03T07:34:02.794Z,99948.28
2023-02-03T07:39:04.706Z,99956.06
2023-02-03T07:44:06.449Z,99942.97
2023-02-03T07:49:08.505Z,99954.25
2023-02-03T07:54:10.380Z,99944.06
2023-02-03T07:59:12.034Z,99943.28
2023-02-03T08:04:16.517Z,99943.41
2023-02-03T08:09:18.338Z,99923.44
2023-02-03T08:14:19.992Z,99919.88
2023-02-03T08:19:21.725Z,99909.56
2023-02-03T08:24:23.686Z,99910.41
2023-02-03T08:29:25.436Z,99904.19
2023-02-03T08:34:27.163Z,99899.78
2023-02-03T08:39:29.109Z,99898.88
2023-02-03T08:44:32.161Z,99890.25
2023-02-03T08:49:35.819Z,99881.59
2023-02-03T08:54:38.136Z,99881.56
2023-02-03T08:59:41.942Z,99871.16
2023-02-03T09:04:44.067Z,99874.66
2023-02-03T09:09:45.872Z,99866.75
2023-02-03T09:14:47.592Z,99839.22
2023-02-03T09:19:59.000Z,99832.13
2023-02-03T09:25:01.240Z,99834.63
2023-02-03T09:30:03.476Z,99805.91
2023-02-03T09:35:05.407Z,99819.94
2023-02-03T09:40:10.199Z,99785.06
2023-02-03T09:45:26.425Z,99773.81
2023-02-03T09:50:31.922Z,99732.16
2023-02-03T09:55:39.193Z,99738.28
2023-02-03T10:00:51.344Z,99738.09
2023-02-03T10:06:10.875Z,99719.75
2023-02-03T10:11:21.554Z,99712.66
2023-02-03T10:16:47.072Z,99703.06
2023-02-03T10:21:55.370Z,99696.91
2023-02-03T10:26:57.496Z,99686.66
2023-02-03T10:31:59.574Z,99691.66
2023-02-03T10:37:44.886Z,99690.84
2023-02-03T10:43:07.514Z,99665.47
2023-02-03T10:48:16.002Z,99672.25
2023-02-03T10:53:40.051Z,99656.53
2023-02-03T10:58:53.856Z,99643.13
2023-02-03T11:03:59.190Z,99630.66
2023-02-03T11:09:00.927Z,99629.88
2023-02-03T11:14:02.625Z,99633.94
2023-02-03T11:19:07.416Z,99639.97
2023-02-03T11:24:28.347Z,99623.38
2023-02-03T11:29:39.013Z,99597.38
2023-02-03T11:34:47.255Z,99614.03
2023-02-03T11:39:49.250Z,99628.97
2023-02-03T11:44:51.167Z,99622.16
2023-02-03T11:49:58.967Z,99600.38
2023-02-03T11:55:26.951Z,99607.25
2023-02-03T12:00:37.666Z,99580.94
2023-02-03T12:05:58.459Z,99533.69
2023-02-03T12:11:15.204Z,99490.88
2023-02-03T12:16:19.848Z,99443.78
2023-02-03T12:21:30.649Z,99538.56
2023-02-03T12:26:41.257Z,99541.63
2023-02-03T12:31:48.902Z,99549.34
2023-02-03T12:37:16.532Z,99550.69
2023-02-03T12:42:32.454Z,99538.69
2023-02-03T12:47:51.100Z,99534.88
2023-02-03T12:52:58.545Z,99532.06
2023-02-03T12:58:11.759Z,99526.34
2023-02-03T13:03:19.550Z,99528.00
2023-02-03T13:08:35.498Z,99539.56
2023-02-03T13:13:45.426Z,99587.91
2023-02-03T13:18:54.001Z,99605.63
2023-02-03T13:23:56.243Z,99618.19
2023-02-03T13:29:14.543Z,99607.16
2023-02-03T13:34:38.002Z,99630.38
2023-02-03T13:39:45.765Z,99635.31
2023-02-03T13:44:52.549Z,99629.16
2023-02-03T13:50:01.171Z,99632.72
2023-02-03T13:55:03.993Z,99648.22
2023-02-03T14:00:27.950Z,99652.47
2023-02-03T14:05:42.551Z,99660.25
2023-02-03T14:10:44.287Z,99666.41
2023-02-03T14:16:24.717Z,99671.78
2023-02-03T14:21:31.166Z,99681.34
2023-02-03T14:26:43.099Z,99697.09
2023-02-03T14:32:13.815Z,99690.13
2023-02-03T14:37:24.413Z,99694.25
2023-02-03T14:42:39.691Z,99696.84
2023-02-03T14:47:53.304Z,99697.69
2023-02-03T14:53:42.954Z,99734.69
2023-02-03T14:58:50.863Z,99714.75
2023-02-03T15:04:11.195Z,99717.03
2023-02-03T15:09:34.398Z,99712.31
2023-02-03T15:14:36.141Z,99725.16
2023-02-03T15:19:42.573Z,99748.53
2023-02-03T15:24:44.230Z,99741.84
2023-02-03T15:29:45.903Z,99752.91
2023-02-03T15:34:53.171Z,99755.75
2023-02-03T15:40:21.205Z,99775.13
2023-02-03T15:45:29.030Z,99776.31
2023-02-03T15:50:38.112Z,99775.59
2023-02-03T15:55:51.135Z,99781.72
2023-02-03T16:00:55.608Z,99777.06
2023-02-03T16:05:57.463Z,99782.03
2023-02-03T16:10:59.695Z,99791.91
2023-02-03T16:16:16.778Z,99800.56
2023-02-03T16:21:37.544Z,99809.19
2023-02-03T16:26:39.321Z,99814.59
2023-02-03T16:32:05.190Z,99829.19
2023-02-03T16:38:01.760Z,99839.53
2023-02-03T16:43:23.213Z,99836.16
2023-02-03T16:48:43.670Z,99832.56
2023-02-03T16:53:48.246Z,99847.38
2023-02-03T16:58:50.042Z,99858.63
2023-02-03T17:03:51.678Z,99859.59
2023-02-03T17:08:53.522Z,99866.75
2023-02-03T17:13:55.339Z,99887.47
2023-02-03T17:18:57.133Z,99881.16
2023-02-03T17:23:59.619Z,99877.75
2023-02-03T17:29:03.503Z,99885.59
2023-02-03T17:34:05.341Z,99892.47
2023-02-03T17:55:06.252Z,99929.03
2023-02-03T18:00:10.054Z,99921.03
2023-02-03T18:05:14.613Z,99927.94
2023-02-03T18:10:16.351Z,99943.59
2023-02-03T18:15:18.158Z,99934.94
2023-02-03T18:20:20.410Z,99950.66
2023-02-03T18:25:22.466Z,99961.94
2023-02-03T18:30:24.182Z,99970.22
2023-02-03T18:35:25.894Z,99981.56
2023-02-03T18:40:27.878Z,99961.16
2023-02-03T18:45:30.178Z,99972.63
2023-02-03T18:50:32.473Z,99978.69
2023-02-03T18:55:34.518Z,99977.78
2023-02-03T19:00:37.023Z,99981.16
2023-02-03T19:05:42.434Z,99990.19
2023-02-03T19:10:44.181Z,99972.03
2023-02-03T19:15:47.745Z,99964.25
2023-02-03T19:20:49.573Z,99988.41
2023-02-03T19:25:52.443Z,99972.72
2023-02-03T19:30:59.995Z,99963.97
2023-02-03T19:36:09.168Z,99963.25
2023-02-03T19:41:11.830Z,99972.72
2023-02-03T19:46:14.227Z,99983.34
2023-02-03T19:51:17.419Z,99983.34
2023-02-03T19:56:19.388Z,99983.59
2023-02-03T20:01:23.128Z,99977.69
2023-02-03T20:06:26.383Z,99991.91
2023-02-03T20:11:28.921Z,99994.50
2023-02-03T20:16:30.693Z,100003.28
2023-02-03T20:21:32.593Z,99993.75
2023-02-03T20:26:34.323Z,100001.50
2023-02-03T20:31:36.545Z,100002.50
2023-02-03T20:36:38.542Z,100002.78
2023-02-03T20:41:40.359Z,99984.66
2023-02-03T20:46:42.578Z,99997.00
2023-02-03T20:51:44.577Z,99999.66
2023-02-03T20:56:46.372Z,99990.94
2023-02-03T21:01:49.195Z,99991.81
2023-02-03T21:06:50.908Z,100011.69
2023-02-03T21:11:54.160Z,100017.75
2023-02-03T21:16:55.813Z,100028.16
2023-02-03T21:21:58.162Z,100019.47
2023-02-03T21:27:00.486Z,100005.59
2023-02-03T21:32:03.081Z,100037.56
2023-02-03T21:37:24.804Z,100033.34
2023-02-03T21:42:43.416Z,100030.59
2023-02-03T21:47:47.020Z,100034.97
2023-02-03T21:52:48.776Z,100050.66
2023-02-03T21:57:50.639Z,100060.13
2023-02-03T22:02:59.644Z,100061.91
2023-02-03T22:08:13.808Z,100091.38
2023-02-03T22:13:16.339Z,100104.50
2023-02-03T22:18:18.032Z,100101.88
2023-02-03T22:23:19.945Z,100111.47
2023-02-03T22:28:21.687Z,100122.72
2023-02-03T22:33:23.450Z,100118.44
2023-02-03T22:38:25.993Z,100113.28
2023-02-03T22:43:29.493Z,100126.31
2023-02-03T22:48:33.157Z,100129.84
2023-02-03T22:53:35.293Z,100140.22
2023-02-03T22:58:36.935Z,100123.78
2023-02-03T23:03:38.677Z,100145.44
2023-02-03T23:08:40.356Z,100148.09
2023-02-03T23:13:42.044Z,100147.22
2023-02-03T23:18:43.670Z,100155.91
2023-02-03T23:23:45.341Z,100148.06
2023-02-03T23:28:46.943Z,100161.97
2023-02-03T23:34:07.085Z,100153.28
2023-02-03T23:39:08.880Z,100156.72
2023-02-03T23:44:11.706Z,100173.22
2023-02-03T23:49:13.383Z,100198.41
2023-02-03T23:54:14.986Z,100239.16
2023-02-03T23:59:16.622Z,100308.56
